METAR UND TAF INFORMATION

METAR FOR LDRI
ADDS - METARS form results

(0155 UTC 26 June 2022)
Data provider http://aviationweather.gov/metar/data/
 
METAR text: LDRI 260130Z 12002KT CAVOK 20/16 Q1015
Conditions at: LDRI (RIJEKA/OMISALJ , HR) observed 0130 UTC 26 June 2022
Temperature: 20.0°C (68°F)
Dewpoint: 16.0°C (61°F) [RH = 78%]
Pressure (altimeter): 29.97 inches Hg (1015.0 mb)
Winds: from the ESE (120 degrees) at 2 MPH (2 knots; 1.0 m/s)
Visibility: 6 or more miles (10+ km)
Ceiling: ceiling and visibility are OK
Clouds: unknown
Weather: no significant weather observed at this time

METAR text: LDRI 260100Z 00000KT CAVOK 21/15 Q1015
Conditions at: LDRI (RIJEKA/OMISALJ , HR) observed 0100 UTC 26 June 2022
Temperature: 21.0°C (70°F)
Dewpoint: 15.0°C (59°F) [RH = 69%]
Pressure (altimeter): 29.97 inches Hg (1015.0 mb)
Winds: calm
Visibility: 6 or more miles (10+ km)
Ceiling: ceiling and visibility are OK
Clouds: unknown
Weather: no significant weather observed at this time

Forecast for: LDRI (RIJEKA/OMISALJ , HR)
Text: TAF LDRI 252325Z 2600/2700 VRB02KT CAVOK TX31/2612Z TN21/2603Z
Forecast period: 0000 UTC 26 June 2022 to 0000 UTC 27 June 2022
Forecast type: FROM: standard forecast or significant change
Winds: variable direction winds at 2 MPH (2 knots; 1.0 m/s)
Visibility: 6 or more miles (10+ km)
Ceiling: unknown
Clouds: missing
Weather: no significant weather forecast for this period
Text: PROB30
Forecast period: 1000 to 1600 UTC 26 June 2022
Forecast type: TEMPORARY: The following changes expected for less than half the time period
Winds: from the WNW (300 degrees) at 8 MPH (7 knots; 3.6 m/s)
Visibility: missing
Ceiling: unknown
Clouds: missing
Weather: no significant weather forecast for this period

 FLUGHAFENKARTE

 RUNWAY INFORMATION
Runway 14 Runway length 8164 ft Runway width 148 ft
Runway elevation 264 ft Runway displaced threshold 0 ft Runway heading 144
Runway 32 Runway length 8164 ft Runway width 148 ft
Runway elevation 246 ft Runway displaced threshold 0 ft Runway heading 324

 AIRPORT FREQUENCIES
Type APP Name APP Frequency 119 MHZ
Type TWR Name TWR Frequency 119 MHZ

 AIRPORT NEAR NAVIGATION AIDS
Type NDB Name Breza Frequency 400 KHZ
Type NDB Name Kozala Frequency 438 KHZ
Type VOR-DME Name Rijeka Frequency 117800 KHZ